D/T METAR WX W/DIR W/SPE G/SPE TEMP DEWP
19/03/19 02:50 EGOV 190250Z AUTO 27005KT 9999 FEW007/// BKN024/// 08/08 Q1024 W (270°) 5.8mph 8°C 8°C
19/03/19 01:50 EGOV 190150Z AUTO 26002KT 9999 BKN024/// SCT050/// BKN100/// 08/08 Q1023 W (260°) 2.3mph 8°C 8°C
19/03/19 00:50 EGOV 190050Z AUTO 29004KT 9999 BKN050/// BKN120/// 08/08 Q1023 WNW (290°) 4.6mph 8°C 8°C
18/03/19 23:50 EGOV 182350Z AUTO 28007KT 9999 SCT017/// SCT037/// BKN060/// 09/08 Q1023 W (280°) 8.1mph 9°C 8°C
18/03/19 22:50 EGOV 182250Z AUTO 29004KT 9999 FEW018/// BKN060/// 08/08 Q1023 WNW (290°) 4.6mph 8°C 8°C
18/03/19 21:50 EGOV 182150Z AUTO 28006KT 9999 OVC050/// 08/08 Q1023 W (280°) 6.9mph 8°C 8°C
18/03/19 20:50 EGOV 182050Z 27003KT 9999 FEW011 SCT047 08/07 Q1022 BLU W (270°) 3.5mph 8°C 7°C
18/03/19 19:50 EGOV 181950Z 24004KT 9999 OVC018 09/08 Q1022 WHT WSW (240°) 4.6mph 9°C 8°C
18/03/19 18:50 EGOV 181850Z 24009KT 8000 5000S -RA FEW005 SCT014 BKN021 08/08 Q1021 GRN -RA WSW (240°) 10.4mph 8°C 8°C
18/03/19 17:50 EGOV 181750Z 25011KT 9999 FEW021 BKN028 BKN038 09/08 Q1021 BLU WSW (250°) 12.7mph 9°C 8°C
18/03/19 17:07 EGOV 181707Z 22010KT 9999 -DZ FEW021 BKN033 BKN041 09/08 Q1020 BLU TEMPO 7000 -RADZ SCT021 WHT -DZ SW (220°) 11.5mph 9°C 8°C
18/03/19 15:50 EGOV 181550Z 23011KT 9999 FEW010 BKN020 09/08 Q1020 WHT TEMPO FEW020 BLU SW (230°) 12.7mph 9°C 8°C
18/03/19 14:50 EGOV 181450Z 23010KT 9999 BKN019 BKN027 09/08 Q1020 WHT TEMPO 7000 -RADZ WHT SW (230°) 11.5mph 9°C 8°C
18/03/19 13:50 EGOV 181350Z 23011KT 9999 -DZ FEW008 BKN019 09/08 Q1019 WHT TEMPO 7000 -RADZ SCT008 GRN -DZ SW (230°) 12.7mph 9°C 8°C
18/03/19 13:19 EGOV 181319Z 23012KT 9999 -RADZ FEW008 OVC018 09/08 Q1020 WHT TEMPO 7000 RA SCT008 GRN -RA -DZ SW (230°) 13.8mph 9°C 8°C
18/03/19 12:50 EGOV 181250Z 24013KT 8000 7000W -RADZ SCT011 OVC019 08/07 Q1020 GRN TEMPO 9999 NSW FEW011 BKN019 WHT -RA DZ WSW (240°) 15.0mph 8°C 7°C
18/03/19 11:50 EGOV 181150Z 24012KT 9999 SCT013 BKN019 OVC055 08/06 Q1019 GRN TEMPO 7000 -DZ GRN WSW (240°) 13.8mph 8°C 6°C
18/03/19 11:11 EGOV 181111Z 24010KT 9999 -RA FEW014 BKN019 OVC055 08/06 Q1019 WHT TEMPO SCT011 GRN -RA WSW (240°) 11.5mph 8°C 6°C
18/03/19 10:31 EGOV 181031Z 24011KT 9999 -RA FEW011 SCT039 OVC070 08/06 Q1019 BLU TEMPO SCT011 GRN -RA WSW (240°) 12.7mph 8°C 6°C
18/03/19 09:50 EGOV 180950Z 25011KT 9999 -RA SCT012 BKN021 OVC025 07/06 Q1019 GRN TEMPO FEW012 BKN021 WHT -RA WSW (250°) 12.7mph 7°C 6°C
18/03/19 09:28 EGOV 180928Z 25012KT 9999 -RA SCT014 BKN018 OVC030 07/05 Q1019 GRN TEMPO FEW014 BKN018 WHT -RA WSW (250°) 13.8mph 7°C 5°C
18/03/19 08:50 EGOV 180850Z 26012KT 9999 -RA FEW013 BKN020 OVC029 07/05 Q1019 WHT TEMPO SCT013 GRN -RA W (260°) 13.8mph 7°C 5°C
18/03/19 08:32 EGOV 180832Z 26011KT 9999 -RA FEW013 BKN020 OVC032 07/05 Q1019 WHT TEMPO SCT013 GRN -RA W (260°) 12.7mph 7°C 5°C
18/03/19 07:50 EGOV 180750Z 26013KT 9999 -RA SCT014 BKN022 OVC030 07/05 Q1018 GRN TEMPO FEW014 BKN022 WHT -RA W (260°) 15.0mph 7°C 5°C
18/03/19 06:50 EGOV 180650Z 27012KT 9999 -RA SCT014 OVC032 06/04 Q1018 GRN TEMPO FEW014 BLU -RA W (270°) 13.8mph 6°C 4°C
18/03/19 05:50 EGOV 180550Z AUTO 27014KT 9999 BKN050/// BKN090/// 07/04 Q1018 W (270°) 16.1mph 7°C 4°C
18/03/19 04:50 EGOV 180450Z AUTO 29013KT 9999 BKN031/// BKN100/// 07/04 Q1018 WNW (290°) 15.0mph 7°C 4°C
18/03/19 03:50 EGOV 180350Z AUTO 28010KT 9999 BKN090/// 07/05 Q1018 W (280°) 11.5mph 7°C 5°C
18/03/19 02:50 EGOV 180250Z AUTO 28013KT 9999 SCT110/// BKN150/// 07/04 Q1018 W (280°) 15.0mph 7°C 4°C
18/03/19 01:50 EGOV 180150Z AUTO 28013KT 9999 FEW060/// BKN120/// 07/04 Q1017 W (280°) 15.0mph 7°C 4°C
18/03/19 00:50 EGOV 180050Z AUTO 29010KT 9999 FEW060/// 07/04 Q1017 WNW (290°) 11.5mph 7°C 4°C
17/03/19 23:50 EGOV 172350Z AUTO 30007KT 9999 NCD 07/04 Q1017 WNW (300°) 8.1mph 7°C 4°C
17/03/19 22:50 EGOV 172250Z AUTO 29007KT 9999 FEW031/// 07/03 Q1016 WNW (290°) 8.1mph 7°C 3°C
17/03/19 21:50 EGOV 172150Z AUTO 31010KT 9999 NCD 07/03 Q1015 NW (310°) 11.5mph 7°C 3°C
17/03/19 20:50 EGOV 172050Z AUTO 32007KT 9999 NCD 07/03 Q1014 NW (320°) 8.1mph 7°C 3°C
17/03/19 19:50 EGOV 171950Z AUTO 32013KT 9999 FEW044/// 08/03 Q1014 NW (320°) 15.0mph 8°C 3°C
17/03/19 18:50 EGOV 171850Z AUTO 30015KT 9999 NCD 08/04 Q1012 WNW (300°) 17.3mph 8°C 4°C
17/03/19 17:50 EGOV 171750Z AUTO 31012KT 9999 SCT041/// 09/04 Q1011 NW (310°) 13.8mph 9°C 4°C
17/03/19 16:50 EGOV 171650Z AUTO 30010KT 9999 SCT037/// SCT050/// 09/05 Q1009 RERA WNW (300°) 11.5mph 9°C 5°C
17/03/19 15:50 EGOV 171550Z AUTO 32018G28KT 9999 FEW040/// 09/04 Q1008 NW (320°) 20.7mph 32.2mph 9°C 4°C
17/03/19 14:50 EGOV 171450Z AUTO 30015KT 9999 NCD 09/05 Q1006 WNW (300°) 17.3mph 9°C 5°C
17/03/19 13:50 EGOV 171350Z AUTO 30019KT 9999 SCT023/// SCT031/// 08/05 Q1005 RERA WNW (300°) 21.9mph 8°C 5°C
17/03/19 12:50 EGOV 171250Z AUTO 27017KT 4500 -RA FEW013/// BKN022/// 06/04 Q1005 -RA W (270°) 19.6mph 6°C 4°C
17/03/19 11:50 EGOV 171150Z AUTO 27010KT 9999 FEW019/// BKN022/// 06/03 Q1004 RERA W (270°) 11.5mph 6°C 3°C
17/03/19 10:50 EGOV 171050Z AUTO 27020KT 9999 FEW020/// BKN070/// 07/03 Q1004 W (270°) 23.0mph 7°C 3°C
17/03/19 09:50 EGOV 170950Z AUTO 27018KT 9999 FEW017/// 06/02 Q1004 W (270°) 20.7mph 6°C 2°C
17/03/19 08:50 EGOV 170850Z AUTO 28019KT 9999 SCT019/// 06/02 Q1003 W (280°) 21.9mph 6°C 2°C
17/03/19 07:50 EGOV 170750Z AUTO 28018KT 9999 SCT018/// 05/02 Q1002 W (280°) 20.7mph 5°C 2°C
17/03/19 06:50 EGOV 170650Z AUTO 28014KT 9999 BKN019/// 04/01 Q1001 W (280°) 16.1mph 4°C 1°C
17/03/19 05:50 EGOV 170550Z AUTO 28017KT 9999 SCT018/// 04/01 Q1000 W (280°) 19.6mph 4°C 1°C
17/03/19 04:50 EGOV 170450Z AUTO 28020KT 9999 SCT019/// 04/01 Q0999 W (280°) 23.0mph 4°C 1°C
17/03/19 03:50 EGOV 170350Z AUTO 28018KT 9999 BKN019/// 04/01 Q0999 W (280°) 20.7mph 4°C 1°C
17/03/19 02:50 EGOV 170250Z AUTO 28017KT 9999 BKN020/// SCT026/// 05/02 Q0998 W (280°) 19.6mph 5°C 2°C
17/03/19 01:50 EGOV 170150Z AUTO 29017KT 9999 FEW018/// 05/02 Q0998 WNW (290°) 19.6mph 5°C 2°C
17/03/19 00:50 EGOV 170050Z AUTO 29017KT 9999 FEW018/// SCT023/// 05/02 Q0997 WNW (290°) 19.6mph 5°C 2°C
16/03/19 23:50 EGOV 162350Z AUTO 29019KT 9999 BKN017/// SCT027/// 05/03 Q0996 RERA WNW (290°) 21.9mph 5°C 3°C
16/03/19 22:50 EGOV 162250Z AUTO 29016KT 9999 FEW031/// BKN038/// 06/03 Q0996 WNW (290°) 18.4mph 6°C 3°C
16/03/19 21:50 EGOV 162150Z AUTO 29015KT 9999 FEW021/// SCT070/// 06/03 Q0995 WNW (290°) 17.3mph 6°C 3°C
16/03/19 20:50 EGOV 162050Z AUTO 29015KT 9999 SCT021/// SCT060/// 06/04 Q0994 RERA WNW (290°) 17.3mph 6°C 4°C
16/03/19 19:50 EGOV 161950Z AUTO 29015KT 9999 FEW019/// SCT110/// 07/03 Q0993 WNW (290°) 17.3mph 7°C 3°C
16/03/19 18:50 EGOV 161850Z AUTO 28014KT 9999 FEW025/// SCT090/// 07/03 Q0992 W (280°) 16.1mph 7°C 3°C
16/03/19 17:50 EGOV 161750Z AUTO 29016KT 9999 NCD 07/03 Q0991 WNW (290°) 18.4mph 7°C 3°C
16/03/19 16:50 EGOV 161650Z AUTO 28021KT 9999 FEW019/// SCT023/// BKN070/// 08/05 Q0990 RERA W (280°) 24.2mph 8°C 5°C
16/03/19 15:50 EGOV 161550Z AUTO 27021KT 9999 -RA FEW013/// BKN019/// 09/06 Q0989 -RA W (270°) 24.2mph 9°C 6°C
16/03/19 14:50 EGOV 161450Z AUTO 23027G40KT 3900 -RADZ BKN007/// SCT013/// 10/09 Q0988 -RA -DZ SW (230°) 31.1mph 46.0mph 10°C 9°C
16/03/19 13:50 EGOV 161350Z AUTO 21034G45KT 4000 BR OVC006/// 10/09 Q0988 RERA BR SSW (210°) 39.1mph 51.8mph 10°C 9°C
16/03/19 12:50 EGOV 161250Z AUTO 21035KT 4100 -RA OVC007/// 10/09 Q0989 -RA SSW (210°) 40.3mph 10°C 9°C
16/03/19 11:50 EGOV 161150Z AUTO 21035KT 4700 -RADZ OVC007/// 10/09 Q0990 -RA -DZ SSW (210°) 40.3mph 10°C 9°C
16/03/19 10:50 EGOV 161050Z AUTO 21034KT 5000 HZ OVC007/// 10/09 Q0991 RERA HZ SSW (210°) 39.1mph 10°C 9°C
16/03/19 09:50 EGOV 160950Z AUTO 21034KT 4900 BR OVC007/// 10/09 Q0992 BR SSW (210°) 39.1mph 10°C 9°C
16/03/19 08:50 EGOV 160850Z AUTO 21034KT 4600 BR OVC007/// 10/09 Q0993 RERA BR SSW (210°) 39.1mph 10°C 9°C
16/03/19 07:50 EGOV 160750Z AUTO 21034KT 3000 RA OVC008/// 10/09 Q0994 RA SSW (210°) 39.1mph 10°C 9°C
16/03/19 06:50 EGOV 160650Z AUTO 21033G43KT 5000 HZ OVC010/// 10/09 Q0995 RERA HZ SSW (210°) 38.0mph 49.5mph 10°C 9°C
16/03/19 05:50 EGOV 160550Z AUTO 20032KT 3900 RA OVC009/// 10/09 Q0995 RA SSW (200°) 36.8mph 10°C 9°C
16/03/19 04:50 EGOV 160450Z AUTO 21033KT 5000 HZ OVC008/// 10/09 Q0997 RERA HZ SSW (210°) 38.0mph 10°C 9°C
16/03/19 03:50 EGOV 160350Z AUTO 21031KT 3400 -DZ OVC008/// 10/09 Q0997 -DZ SSW (210°) 35.7mph 10°C 9°C
16/03/19 02:50 EGOV 160250Z AUTO 21029KT 5000 BR BKN007/// 10/09 Q0998 RERA BR SSW (210°) 33.4mph 10°C 9°C
16/03/19 01:50 EGOV 160150Z AUTO 21025KT 5000 -DZ OVC003/// 10/09 Q1000 -DZ SSW (210°) 28.8mph 10°C 9°C
16/03/19 00:50 EGOV 160050Z AUTO 15010KT 3800 -DZ BKN003/// SCT009/// 06/06 Q1001 -DZ SSE (150°) 11.5mph 6°C 6°C
15/03/19 23:50 EGOV 152350Z AUTO 18008KT 9000 -RA FEW019/// BKN023/// 07/06 Q1004 -RA S (180°) 9.2mph 7°C 6°C
15/03/19 22:50 EGOV 152250Z AUTO 24007KT 9999 -RA SCT040/// BKN050/// 07/05 Q1005 -RA WSW (240°) 8.1mph 7°C 5°C
15/03/19 21:50 EGOV 152150Z AUTO 24012KT 9999 -RA SCT043/// BKN050/// 08/05 Q1006 -RA WSW (240°) 13.8mph 8°C 5°C
15/03/19 20:50 EGOV 152050Z AUTO 22008KT 9999 BKN060/// 08/07 Q1007 RERA SW (220°) 9.2mph 8°C 7°C
15/03/19 19:50 EGOV 151950Z AUTO 24009KT 9999 FEW037/// BKN049/// BKN080/// 09/05 Q1008 WSW (240°) 10.4mph 9°C 5°C
15/03/19 18:50 EGOV 151850Z AUTO 22006KT 8000 HZ BKN044/// BKN100/// 08/06 Q1008 HZ SW (220°) 6.9mph 8°C 6°C
15/03/19 17:50 EGOV 151750Z AUTO 25008KT 9999 FEW050/// BKN110/// 09/05 Q1008 WSW (250°) 9.2mph 9°C 5°C
15/03/19 16:50 EGOV 151650Z 27009KT CAVOK 09/05 Q1008 BLU NOSIG W (270°) 10.4mph 9°C 5°C
15/03/19 15:50 EGOV 151550Z 28013KT 9999 FEW030 BKN180 10/05 Q1008 BLU NOSIG W (280°) 15.0mph 10°C 5°C
15/03/19 14:50 EGOV 151450Z 26015KT 9999 FEW030 SCT045 BKN300 10/05 Q1007 BLU NOSIG W (260°) 17.3mph 10°C 5°C
15/03/19 13:50 EGOV 151350Z 26014KT 9999 FEW030 BKN050 10/06 Q1007 BLU NOSIG W (260°) 16.1mph 10°C 6°C
15/03/19 12:50 EGOV 151250Z 27011KT 9999 FEW028 BKN050 BKN130 10/07 Q1007 BLU NOSIG W (270°) 12.7mph 10°C 7°C
15/03/19 11:50 EGOV 151150Z 26014KT 9999 BKN034 BKN050 10/06 Q1006 BLU NOSIG W (260°) 16.1mph 10°C 6°C
15/03/19 10:50 EGOV 151050Z 26015KT 9999 -SHRA FEW025 BKN035 BKN170 09/06 Q1005 BLU NOSIG -SHRA W (260°) 17.3mph 9°C 6°C
15/03/19 09:50 EGOV 150950Z 28019KT 9999 SCT029 BKN110 BKN250 10/05 Q1005 BLU NOSIG W (280°) 21.9mph 10°C 5°C
15/03/19 08:50 EGOV 150850Z 27019KT 9999 FEW025 SCT040 BKN120 10/06 Q1004 BLU NOSIG W (270°) 21.9mph 10°C 6°C
15/03/19 07:50 EGOV 150750Z 26020KT 9999 FEW017 BKN038 09/07 Q1004 BLU NOSIG W (260°) 23.0mph 9°C 7°C
15/03/19 07:29 EGOV 150729Z 27020KT 4000 +SHRA FEW012 BKN017 BKN180 09/07 Q1003 GRN BECMG 9999 NSW FEW017 BLU +SHRA W (270°) 23.0mph 9°C 7°C
15/03/19 06:50 EGOV 150650Z 26020KT 9999 FEW042 SCT100 BKN180 10/08 Q1003 BLU NOSIG W (260°) 23.0mph 10°C 8°C
15/03/19 05:50 EGOV 150550Z AUTO 26023KT 9999 FEW025/// BKN033/// 11/09 Q1001 W (260°) 26.5mph 11°C 9°C
15/03/19 04:50 EGOV 150450Z AUTO 23018KT 9999 BKN022/// SCT028/// 11/09 Q1001 RERA SW (230°) 20.7mph 11°C 9°C
15/03/19 03:50 EGOV 150350Z AUTO 22021KT 4000 -RADZ FEW015/// BKN022/// 10/09 Q1001 -RA -DZ SW (220°) 24.2mph 10°C 9°C
15/03/19 02:50 EGOV 150250Z AUTO 21022KT 6000 BR BKN025/// 10/09 Q1001 RERA BR SSW (210°) 25.3mph 10°C 9°C
15/03/19 01:50 EGOV 150150Z AUTO 22023KT 8000 BR BKN022/// 10/09 Q1000 RERA BR SW (220°) 26.5mph 10°C 9°C
15/03/19 00:50 EGOV 150050Z AUTO 22020KT 3400 -RADZ FEW004/// BKN020/// 10/10 Q1001 -RA -DZ SW (220°) 23.0mph 10°C 10°C
14/03/19 23:50 EGOV 142350Z AUTO 22022KT 6000 BR BKN003/// SCT023/// 10/09 Q1002 RERA BR SW (220°) 25.3mph 10°C 9°C
14/03/19 22:50 EGOV 142250Z AUTO 19016KT 4000 RADZ BKN002/// 08/08 Q1002 RA DZ S (190°) 18.4mph 8°C 8°C
14/03/19 21:50 EGOV 142150Z AUTO 21012KT 5000 -RA BKN024/// 08/07 Q1004 -RA SSW (210°) 13.8mph 8°C 7°C
14/03/19 20:50 EGOV 142050Z AUTO 21012KT 5000 -RA BKN044/// 08/07 Q1005 -RA SSW (210°) 13.8mph 8°C 7°C
14/03/19 19:50 EGOV 141950Z AUTO 22011KT 9999 -RA FEW036/// BKN050/// 09/07 Q1006 -RA SW (220°) 12.7mph 9°C 7°C
14/03/19 18:50 EGOV 141850Z 22010KT 9999 BKN038 OVC120 09/06 Q1006 BLU SW (220°) 11.5mph 9°C 6°C
14/03/19 17:50 EGOV 141750Z 21008KT 9999 FEW042 BKN055 OVC200 09/07 Q1006 BLU NOSIG SSW (210°) 9.2mph 9°C 7°C
14/03/19 16:50 EGOV 141650Z 26012KT 9999 FEW032 BKN050 BKN200 10/06 Q1006 BLU NOSIG W (260°) 13.8mph 10°C 6°C
14/03/19 15:50 EGOV 141550Z 27017KT 9999 FEW032 SCT060 BKN250 10/05 Q1006 BLU NOSIG W (270°) 19.6mph 10°C 5°C
14/03/19 14:50 EGOV 141450Z 27011KT 9999 BKN030 BKN050 10/06 Q1005 BLU NOSIG W (270°) 12.7mph 10°C 6°C
14/03/19 13:50 EGOV 141350Z 26010KT 9999 FEW030 SCT050 BKN250 10/06 Q1005 BLU NOSIG W (260°) 11.5mph 10°C 6°C
14/03/19 12:50 EGOV 141250Z 29019KT 9999 FEW023 SCT044 10/05 Q1005 BLU NOSIG WNW (290°) 21.9mph 10°C 5°C
14/03/19 11:50 EGOV 141150Z 28020KT 9999 FEW031 11/06 Q1004 BLU NOSIG W (280°) 23.0mph 11°C 6°C
14/03/19 10:50 EGOV 141050Z 28019KT 9999 SCT028 SCT050 10/06 Q1003 BLU NOSIG W (280°) 21.9mph 10°C 6°C
14/03/19 09:50 EGOV 140950Z 29018KT 9999 SCT030 09/06 Q1002 BLU NOSIG WNW (290°) 20.7mph 9°C 6°C
14/03/19 08:50 EGOV 140850Z 28022KT 9999 FEW028 10/07 Q1001 BLU NOSIG W (280°) 25.3mph 10°C 7°C
14/03/19 07:50 EGOV 140750Z 29021KT 9999 FEW020 SCT250 10/06 Q1000 BLU NOSIG WNW (290°) 24.2mph 10°C 6°C
14/03/19 06:50 EGOV 140650Z 28029G42KT 9999 FEW011 BKN017 OVC250 10/09 Q1000 WHT BECMG FEW017 BLU W (280°) 33.4mph 48.3mph 10°C 9°C
14/03/19 05:50 EGOV 140550Z AUTO 23023KT 9999 BKN026/// BKN070/// 10/08 Q0998 RERA SW (230°) 26.5mph 10°C 8°C
14/03/19 04:50 EGOV 140450Z AUTO 23023KT 9999 BKN024/// BKN070/// 09/08 Q0999 RERA SW (230°) 26.5mph 9°C 8°C
14/03/19 03:50 EGOV 140350Z AUTO 22026KT 8000 HZ FEW009/// BKN024/// 09/08 Q1000 HZ SW (220°) 29.9mph 9°C 8°C
14/03/19 02:50 EGOV 140250Z AUTO 22028KT 8000 HZ BKN025/// 08/07 Q1002 RERA HZ SW (220°) 32.2mph 8°C 7°C
14/03/19 01:50 EGOV 140150Z AUTO 22025KT 3600 -RA BKN031/// BKN040/// 08/07 Q1004 -RA SW (220°) 28.8mph 8°C 7°C
14/03/19 00:50 EGOV 140050Z AUTO 22025KT 9000 HZ OVC028/// 08/07 Q1006 RERA HZ SW (220°) 28.8mph 8°C 7°C
13/03/19 23:50 EGOV 132350Z AUTO 22024KT 5000 -RA BKN027/// 08/07 Q1007 -RA SW (220°) 27.6mph 8°C 7°C
13/03/19 22:50 EGOV 132250Z AUTO 22022KT 7000 -RA BKN028/// BKN036/// 08/06 Q1009 -RA SW (220°) 25.3mph 8°C 6°C
13/03/19 21:50 EGOV 132150Z AUTO 23020KT 9999 -RA BKN027/// 08/06 Q1010 -RA SW (230°) 23.0mph 8°C 6°C
13/03/19 20:50 EGOV 132050Z AUTO 24016KT 9999 FEW024/// SCT033/// BKN043/// 08/06 Q1011 RERA WSW (240°) 18.4mph 8°C 6°C
13/03/19 19:50 EGOV 131950Z AUTO 25015KT 9999 SCT022/// SCT039/// 08/06 Q1012 RERA WSW (250°) 17.3mph 8°C 6°C
13/03/19 18:50 EGOV 131850Z 27015KT 9999 -RA SCT018 BKN030 OVC050 08/05 Q1012 RERA WHT -RA W (270°) 17.3mph 8°C 5°C
13/03/19 17:50 EGOV 131750Z 28011KT 9999 -RA FEW016 SCT023 OVC060 08/06 Q1012 RERA WHT TEMPO 7000 RA WHT -RA W (280°) 12.7mph 8°C 6°C
13/03/19 17:30 EGOV 131730Z 26019KT 9999 RA BKN020 OVC060 08/06 Q1012 WHT TEMPO 7000 WHT RA W (260°) 21.9mph 8°C 6°C
13/03/19 16:50 EGOV 131650Z 26013KT 9999 -RA FEW018 BKN030 OVC100 09/05 Q1012 BLU NOSIG -RA W (260°) 15.0mph 9°C 5°C
13/03/19 15:50 EGOV 131550Z 28019KT 9999 FEW022 SCT050 BKN100 10/04 Q1012 BLU NOSIG W (280°) 21.9mph 10°C 4°C
13/03/19 14:50 EGOV 131450Z 27017KT 9999 FEW038 OVC200 10/04 Q1012 BLU NOSIG W (270°) 19.6mph 10°C 4°C
13/03/19 13:50 EGOV 131350Z 28021KT 9999 FEW040 BKN200 10/03 Q1012 BLU NOSIG W (280°) 24.2mph 10°C 3°C
13/03/19 12:50 EGOV 131250Z 28021KT 9999 FEW037 BKN200 10/03 Q1011 BLU NOSIG W (280°) 24.2mph 10°C 3°C
13/03/19 11:50 EGOV 131150Z 29025KT 9999 FEW024 10/04 Q1011 BLU NOSIG WNW (290°) 28.8mph 10°C 4°C
13/03/19 10:50 EGOV 131050Z 29025KT 9999 FEW023 09/04 Q1009 BLU NOSIG WNW (290°) 28.8mph 9°C 4°C
13/03/19 09:50 EGOV 130950Z 29025G36KT 9999 FEW023 09/04 Q1008 BLU NOSIG WNW (290°) 28.8mph 41.4mph 9°C 4°C